Back to Top

Language: 

My Weather Underground Personal Weather Station Historical Data with Graphs...

Delerius Weather Station Historical Data
Daily Summary for March 13, 2017 Units:  Both    English   Metric
« Previous Day
Next Day »
Daily Weekly Monthly Yearly Custom
  High: Low: Average:
Temperature: 57.3 °F /  14.1 °C 38.3 °F /  3.5 °C 48.1 °F /  8.9 °C
Dew Point: 47.3 °F /  8.5 °C 36.1 °F /  2.3 °C 42.5 °F /  5.8 °C
Humidity: 93 % 66 % 81 %
Wind Speed: 17.0 mph /  27.4 km/h - 6.5 mph /  10.5 km/h
Wind Gust: 20.0 mph /  32.2 km/h - -
Wind:- - West
Pressure: 30.38 in /  1028.7 hPa 30.18 in /  1021.9 hPa -
Precipitation: 0.00 in /  0 mm    
Historical Graphs
 
 
Tabular Data for March 13, 2017
Time Temperature Dew Point Pressure Wind Wind Speed Wind Gust Humidity Rainfall Rate (Hourly) solar Conditions
00:05 43.9 °F /  6.6 °C 40.3 °F /  4.6 °C 30.18 in /  1021.9 hPa WNW 5.0 mph /  8 km/h 16.0 mph /  25.7 km/h 87 % 0.00 in /  0 mm 0 W/m2
00:15 43.8 °F /  6.6 °C 40.2 °F /  4.6 °C 30.18 in /  1021.9 hPa West 5.0 mph /  8 km/h 6.0 mph /  9.7 km/h 87 % 0.00 in /  0 mm 0 W/m2
00:20 43.7 °F /  6.5 °C 40.1 °F /  4.5 °C 30.18 in /  1021.9 hPa WNW 5.0 mph /  8 km/h 6.0 mph /  9.7 km/h 87 % 0.00 in /  0 mm 0 W/m2
00:25 43.5 °F /  6.4 °C 39.9 °F /  4.4 °C 30.18 in /  1021.9 hPa WNW 6.0 mph /  9.7 km/h 8.0 mph /  12.9 km/h 87 % 0.00 in /  0 mm 0 W/m2
00:30 43.4 °F /  6.3 °C 39.8 °F /  4.3 °C 30.19 in /  1022.2 hPa West 7.0 mph /  11.3 km/h 7.0 mph /  11.3 km/h 87 % 0.00 in /  0 mm 0 W/m2
00:40 43.3 °F /  6.3 °C 40.0 °F /  4.4 °C 30.19 in /  1022.2 hPa West 7.0 mph /  11.3 km/h 7.0 mph /  11.3 km/h 88 % 0.00 in /  0 mm 0 W/m2
00:45 43.2 °F /  6.2 °C 39.6 °F /  4.2 °C 30.19 in /  1022.2 hPa WNW 5.0 mph /  8 km/h 7.0 mph /  11.3 km/h 87 % 0.00 in /  0 mm 0 W/m2
00:55 43.0 °F /  6.1 °C 39.7 °F /  4.3 °C 30.20 in /  1022.6 hPa WNW 3.0 mph /  4.8 km/h 7.0 mph /  11.3 km/h 88 % 0.00 in /  0 mm 0 W/m2
01:00 42.9 °F /  6.1 °C 39.6 °F /  4.2 °C 30.20 in /  1022.6 hPa WNW 5.0 mph /  8 km/h 9.0 mph /  14.5 km/h 88 % 0.00 in /  0 mm 0 W/m2
01:05 42.9 °F /  6.1 °C 39.6 °F /  4.2 °C 30.21 in /  1022.9 hPa WNW 6.0 mph /  9.7 km/h 9.0 mph /  14.5 km/h 88 % 0.00 in /  0 mm 0 W/m2
01:10 42.9 °F /  6.1 °C 39.6 °F /  4.2 °C 30.21 in /  1022.9 hPa West 6.0 mph /  9.7 km/h 6.0 mph /  9.7 km/h 88 % 0.00 in /  0 mm 0 W/m2
01:15 42.9 °F /  6.1 °C 39.6 °F /  4.2 °C 30.21 in /  1022.9 hPa WNW 5.0 mph /  8 km/h 7.0 mph /  11.3 km/h 88 % 0.00 in /  0 mm 0 W/m2
01:20 42.9 °F /  6.1 °C 39.6 °F /  4.2 °C 30.21 in /  1022.9 hPa WNW 6.0 mph /  9.7 km/h 6.0 mph /  9.7 km/h 88 % 0.00 in /  0 mm 0 W/m2
01:30 42.9 °F /  6.1 °C 39.3 °F /  4.1 °C 30.22 in /  1023.2 hPa West 7.0 mph /  11.3 km/h 9.0 mph /  14.5 km/h 87 % 0.00 in /  0 mm 0 W/m2
01:35 43.0 °F /  6.1 °C 39.4 °F /  4.1 °C 30.21 in /  1022.9 hPa West 8.0 mph /  12.9 km/h 9.0 mph /  14.5 km/h 87 % 0.00 in /  0 mm 0 W/m2
01:40 43.0 °F /  6.1 °C 39.1 °F /  3.9 °C 30.21 in /  1022.9 hPa WNW 8.0 mph /  12.9 km/h 9.0 mph /  14.5 km/h 86 % 0.00 in /  0 mm 0 W/m2
01:45 43.0 °F /  6.1 °C 39.1 °F /  3.9 °C 30.22 in /  1023.2 hPa WNW 7.0 mph /  11.3 km/h 9.0 mph /  14.5 km/h 86 % 0.00 in /  0 mm 0 W/m2
01:50 43.0 °F /  6.1 °C 39.1 °F /  3.9 °C 30.22 in /  1023.2 hPa NW 7.0 mph /  11.3 km/h 7.0 mph /  11.3 km/h 86 % 0.00 in /  0 mm 0 W/m2
02:00 42.8 °F /  6 °C 38.6 °F /  3.7 °C 30.22 in /  1023.2 hPa WNW 4.0 mph /  6.4 km/h 9.0 mph /  14.5 km/h 85 % 0.00 in /  0 mm 0 W/m2
02:05 42.7 °F /  5.9 °C 38.5 °F /  3.6 °C 30.22 in /  1023.2 hPa NW 4.0 mph /  6.4 km/h 9.0 mph /  14.5 km/h 85 % 0.00 in /  0 mm 0 W/m2
02:15 42.5 °F /  5.8 °C 38.3 °F /  3.5 °C 30.22 in /  1023.2 hPa WNW 5.0 mph /  8 km/h 9.0 mph /  14.5 km/h 85 % 0.00 in /  0 mm 0 W/m2
02:20 42.4 °F /  5.8 °C 38.2 °F /  3.4 °C 30.22 in /  1023.2 hPa WNW 5.0 mph /  8 km/h 9.0 mph /  14.5 km/h 85 % 0.00 in /  0 mm 0 W/m2
02:25 42.3 °F /  5.7 °C 38.1 °F /  3.4 °C 30.22 in /  1023.2 hPa NW 5.0 mph /  8 km/h 9.0 mph /  14.5 km/h 85 % 0.00 in /  0 mm 0 W/m2
02:35 42.2 °F /  5.7 °C 38.0 °F /  3.3 °C 30.22 in /  1023.2 hPa NNW 2.0 mph /  3.2 km/h 9.0 mph /  14.5 km/h 85 % 0.00 in /  0 mm 0 W/m2
02:40 42.1 °F /  5.6 °C 37.9 °F /  3.3 °C 30.22 in /  1023.2 hPa WNW 1.0 mph /  1.6 km/h 1.0 mph /  1.6 km/h 85 % 0.00 in /  0 mm 0 W/m2
02:45 41.9 °F /  5.5 °C 37.7 °F /  3.2 °C 30.22 in /  1023.2 hPa Calm   9.0 mph /  14.5 km/h 85 % 0.00 in /  0 mm 0 W/m2
02:50 41.7 °F /  5.4 °C 37.5 °F /  3.1 °C 30.23 in /  1023.6 hPa Calm   9.0 mph /  14.5 km/h 85 % 0.00 in /  0 mm 0 W/m2
02:55 41.5 °F /  5.3 °C 37.6 °F /  3.1 °C 30.23 in /  1023.6 hPa WNW 1.0 mph /  1.6 km/h 9.0 mph /  14.5 km/h 86 % 0.00 in /  0 mm 0 W/m2
03:00 41.3 °F /  5.2 °C 37.4 °F /  3 °C 30.22 in /  1023.2 hPa WNW 1.0 mph /  1.6 km/h 9.0 mph /  14.5 km/h 86 % 0.00 in /  0 mm 0 W/m2
03:10 41.6 °F /  5.3 °C 38.3 °F /  3.5 °C 30.23 in /  1023.6 hPa NW 5.0 mph /  8 km/h 9.0 mph /  14.5 km/h 88 % 0.00 in /  0 mm 0 W/m2
03:20 42.1 °F /  5.6 °C 38.8 °F /  3.8 °C 30.23 in /  1023.6 hPa West 7.0 mph /  11.3 km/h 9.0 mph /  14.5 km/h 88 % 0.00 in /  0 mm 0 W/m2
03:25 42.3 °F /  5.7 °C 39.0 °F /  3.9 °C 30.23 in /  1023.6 hPa NW 7.0 mph /  11.3 km/h 9.0 mph /  14.5 km/h 88 % 0.00 in /  0 mm 0 W/m2
03:30 42.5 °F /  5.8 °C 38.9 °F /  3.8 °C 30.23 in /  1023.6 hPa NW 6.0 mph /  9.7 km/h 9.0 mph /  14.5 km/h 87 % 0.00 in /  0 mm 0 W/m2
03:35 42.5 °F /  5.8 °C 38.9 °F /  3.8 °C 30.23 in /  1023.6 hPa WNW 6.0 mph /  9.7 km/h 9.0 mph /  14.5 km/h 87 % 0.00 in /  0 mm 0 W/m2
03:40 42.5 °F /  5.8 °C 38.9 °F /  3.8 °C 30.23 in /  1023.6 hPa WNW 5.0 mph /  8 km/h 9.0 mph /  14.5 km/h 87 % 0.00 in /  0 mm 0 W/m2
03:45 42.4 °F /  5.8 °C 38.8 °F /  3.8 °C 30.24 in /  1023.9 hPa West 4.0 mph /  6.4 km/h 9.0 mph /  14.5 km/h 87 % 0.00 in /  0 mm 0 W/m2
03:50 42.3 °F /  5.7 °C 38.7 °F /  3.7 °C 30.24 in /  1023.9 hPa WNW 2.0 mph /  3.2 km/h 2.0 mph /  3.2 km/h 87 % 0.00 in /  0 mm 0 W/m2
03:55 42.2 °F /  5.7 °C 38.9 °F /  3.8 °C 30.24 in /  1023.9 hPa WNW 3.0 mph /  4.8 km/h 4.0 mph /  6.4 km/h 88 % 0.00 in /  0 mm 0 W/m2
04:00 42.2 °F /  5.7 °C 38.9 °F /  3.8 °C 30.24 in /  1023.9 hPa NW 3.0 mph /  4.8 km/h 3.0 mph /  4.8 km/h 88 % 0.00 in /  0 mm 0 W/m2
04:10 42.0 °F /  5.6 °C 38.7 °F /  3.7 °C 30.24 in /  1023.9 hPa West 2.0 mph /  3.2 km/h 9.0 mph /  14.5 km/h 88 % 0.00 in /  0 mm 0 W/m2
04:20 41.7 °F /  5.4 °C 38.7 °F /  3.7 °C 30.24 in /  1023.9 hPa WNW 1.0 mph /  1.6 km/h 9.0 mph /  14.5 km/h 89 % 0.00 in /  0 mm 0 W/m2
04:25 41.5 °F /  5.3 °C 38.5 °F /  3.6 °C 30.24 in /  1023.9 hPa Calm   9.0 mph /  14.5 km/h 89 % 0.00 in /  0 mm 0 W/m2
04:30 41.2 °F /  5.1 °C 38.2 °F /  3.4 °C 30.24 in /  1023.9 hPa WNW 1.0 mph /  1.6 km/h 9.0 mph /  14.5 km/h 89 % 0.00 in /  0 mm 0 W/m2
04:35 41.0 °F /  5 °C 38.0 °F /  3.3 °C 30.24 in /  1023.9 hPa WNW 2.0 mph /  3.2 km/h 9.0 mph /  14.5 km/h 89 % 0.00 in /  0 mm 0 W/m2
04:40 40.9 °F /  4.9 °C 38.2 °F /  3.4 °C 30.24 in /  1023.9 hPa WNW 4.0 mph /  6.4 km/h 9.0 mph /  14.5 km/h 90 % 0.00 in /  0 mm 0 W/m2
04:50 41.0 °F /  5 °C 38.3 °F /  3.5 °C 30.25 in /  1024.3 hPa West 5.0 mph /  8 km/h 9.0 mph /  14.5 km/h 90 % 0.00 in /  0 mm 0 W/m2
04:55 41.0 °F /  5 °C 38.3 °F /  3.5 °C 30.25 in /  1024.3 hPa West 5.0 mph /  8 km/h 9.0 mph /  14.5 km/h 90 % 0.00 in /  0 mm 0 W/m2
05:00 40.9 °F /  4.9 °C 38.2 °F /  3.4 °C 30.25 in /  1024.3 hPa West 2.0 mph /  3.2 km/h 2.0 mph /  3.2 km/h 90 % 0.00 in /  0 mm 0 W/m2
05:05 40.7 °F /  4.8 °C 38.0 °F /  3.3 °C 30.25 in /  1024.3 hPa West 1.0 mph /  1.6 km/h 9.0 mph /  14.5 km/h 90 % 0.00 in /  0 mm 0 W/m2
05:10 40.5 °F /  4.7 °C 37.8 °F /  3.2 °C 30.25 in /  1024.3 hPa West 1.0 mph /  1.6 km/h 1.0 mph /  1.6 km/h 90 % 0.00 in /  0 mm 0 W/m2
05:15 40.3 °F /  4.6 °C 37.9 °F /  3.3 °C 30.25 in /  1024.3 hPa Calm   9.0 mph /  14.5 km/h 91 % 0.00 in /  0 mm 0 W/m2
05:25 40.0 °F /  4.4 °C 37.6 °F /  3.1 °C 30.25 in /  1024.3 hPa Calm   9.0 mph /  14.5 km/h 91 % 0.00 in /  0 mm 0 W/m2
05:30 39.9 °F /  4.4 °C 37.5 °F /  3.1 °C 30.25 in /  1024.3 hPa Calm   9.0 mph /  14.5 km/h 91 % 0.00 in /  0 mm 0 W/m2
05:35 39.7 °F /  4.3 °C 37.3 °F /  2.9 °C 30.25 in /  1024.3 hPa Calm   9.0 mph /  14.5 km/h 91 % 0.00 in /  0 mm 0 W/m2
05:40 39.5 °F /  4.2 °C 37.1 °F /  2.8 °C 30.25 in /  1024.3 hPa Calm   9.0 mph /  14.5 km/h 91 % 0.00 in /  0 mm 0 W/m2
05:50 39.4 °F /  4.1 °C 37.3 °F /  2.9 °C 30.26 in /  1024.6 hPa Calm   9.0 mph /  14.5 km/h 92 % 0.00 in /  0 mm 0 W/m2
06:00 39.1 °F /  3.9 °C 37.0 °F /  2.8 °C 30.27 in /  1024.9 hPa Calm   9.0 mph /  14.5 km/h 92 % 0.00 in /  0 mm 0 W/m2
06:05 39.0 °F /  3.9 °C 36.9 °F /  2.7 °C 30.27 in /  1024.9 hPa Calm   9.0 mph /  14.5 km/h 92 % 0.00 in /  0 mm 0 W/m2
06:10 38.9 °F /  3.8 °C 36.8 °F /  2.7 °C 30.27 in /  1024.9 hPa Calm   9.0 mph /  14.5 km/h 92 % 0.00 in /  0 mm 0 W/m2
06:15 38.7 °F /  3.7 °C 36.3 °F /  2.4 °C 30.27 in /  1024.9 hPa Calm   9.0 mph /  14.5 km/h 91 % 0.00 in /  0 mm 0 W/m2
06:20 38.5 °F /  3.6 °C 36.1 °F /  2.3 °C 30.27 in /  1024.9 hPa Calm   9.0 mph /  14.5 km/h 91 % 0.00 in /  0 mm 0 W/m2
06:25 38.4 °F /  3.6 °C 36.3 °F /  2.4 °C 30.27 in /  1024.9 hPa Calm   9.0 mph /  14.5 km/h 92 % 0.00 in /  0 mm 0 W/m2
06:30 38.4 °F /  3.6 °C 36.3 °F /  2.4 °C 30.27 in /  1024.9 hPa Calm   9.0 mph /  14.5 km/h 92 % 0.00 in /  0 mm 7 W/m2
06:35 38.3 °F /  3.5 °C 36.2 °F /  2.3 °C 30.27 in /  1024.9 hPa Calm   9.0 mph /  14.5 km/h 92 % 0.00 in /  0 mm 9 W/m2
06:40 38.3 °F /  3.5 °C 36.2 °F /  2.3 °C 30.28 in /  1025.3 hPa Calm   9.0 mph /  14.5 km/h 92 % 0.00 in /  0 mm 14 W/m2
06:50 38.3 °F /  3.5 °C 36.5 °F /  2.5 °C 30.28 in /  1025.3 hPa WSW 1.0 mph /  1.6 km/h 1.0 mph /  1.6 km/h 93 % 0.00 in /  0 mm 18 W/m2
06:55 38.5 °F /  3.6 °C 36.7 °F /  2.6 °C 30.28 in /  1025.3 hPa West 1.0 mph /  1.6 km/h 2.0 mph /  3.2 km/h 93 % 0.00 in /  0 mm 18 W/m2
07:05 39.2 °F /  4 °C 37.1 °F /  2.8 °C 30.28 in /  1025.3 hPa West 4.0 mph /  6.4 km/h 9.0 mph /  14.5 km/h 92 % 0.00 in /  0 mm 30 W/m2
07:10 39.6 °F /  4.2 °C 37.5 °F /  3.1 °C 30.28 in /  1025.3 hPa WSW 4.0 mph /  6.4 km/h 9.0 mph /  14.5 km/h 92 % 0.00 in /  0 mm 63 W/m2
07:15 40.1 °F /  4.5 °C 38.0 °F /  3.3 °C 30.28 in /  1025.3 hPa WSW 3.0 mph /  4.8 km/h 9.0 mph /  14.5 km/h 92 % 0.00 in /  0 mm 46 W/m2
07:20 40.6 °F /  4.8 °C 38.5 °F /  3.6 °C 30.28 in /  1025.3 hPa WSW 3.0 mph /  4.8 km/h 9.0 mph /  14.5 km/h 92 % 0.00 in /  0 mm 65 W/m2
07:25 41.0 °F /  5 °C 38.6 °F /  3.7 °C 30.28 in /  1025.3 hPa West 3.0 mph /  4.8 km/h 9.0 mph /  14.5 km/h 91 % 0.00 in /  0 mm 65 W/m2
07:30 41.3 °F /  5.2 °C 38.9 °F /  3.8 °C 30.28 in /  1025.3 hPa West 2.0 mph /  3.2 km/h 9.0 mph /  14.5 km/h 91 % 0.00 in /  0 mm 42 W/m2
07:35 41.6 °F /  5.3 °C 38.9 °F /  3.8 °C 30.28 in /  1025.3 hPa WNW 4.0 mph /  6.4 km/h 9.0 mph /  14.5 km/h 90 % 0.00 in /  0 mm 44 W/m2
07:40 42.0 °F /  5.6 °C 39.0 °F /  3.9 °C 30.28 in /  1025.3 hPa West 5.0 mph /  8 km/h 9.0 mph /  14.5 km/h 89 % 0.00 in /  0 mm 74 W/m2
07:45 42.4 °F /  5.8 °C 39.4 °F /  4.1 °C 30.28 in /  1025.3 hPa WSW 6.0 mph /  9.7 km/h 9.0 mph /  14.5 km/h 89 % 0.00 in /  0 mm 102 W/m2
07:50 42.8 °F /  6 °C 39.5 °F /  4.2 °C 30.28 in /  1025.3 hPa WSW 7.0 mph /  11.3 km/h 9.0 mph /  14.5 km/h 88 % 0.00 in /  0 mm 53 W/m2
07:55 43.2 °F /  6.2 °C 39.6 °F /  4.2 °C 30.28 in /  1025.3 hPa West 8.0 mph /  12.9 km/h 9.0 mph /  14.5 km/h 87 % 0.00 in /  0 mm 109 W/m2
08:05 44.2 °F /  6.8 °C 40.3 °F /  4.6 °C 30.29 in /  1025.6 hPa WSW 8.0 mph /  12.9 km/h 10.0 mph /  16.1 km/h 86 % 0.00 in /  0 mm 207 W/m2
08:10 44.6 °F /  7 °C 40.1 °F /  4.5 °C 30.29 in /  1025.6 hPa WNW 9.0 mph /  14.5 km/h 9.0 mph /  14.5 km/h 84 % 0.00 in /  0 mm 209 W/m2
08:15 45.1 °F /  7.3 °C 40.6 °F /  4.8 °C 30.29 in /  1025.6 hPa WSW 8.0 mph /  12.9 km/h 10.0 mph /  16.1 km/h 84 % 0.00 in /  0 mm 239 W/m2
08:20 45.5 °F /  7.5 °C 40.3 °F /  4.6 °C 30.29 in /  1025.6 hPa WNW 8.0 mph /  12.9 km/h 9.0 mph /  14.5 km/h 82 % 0.00 in /  0 mm 255 W/m2
08:25 45.9 °F /  7.7 °C 40.4 °F /  4.7 °C 30.29 in /  1025.6 hPa WSW 8.0 mph /  12.9 km/h 10.0 mph /  16.1 km/h 81 % 0.00 in /  0 mm 269 W/m2
08:30 46.4 °F /  8 °C 40.6 °F /  4.8 °C 30.29 in /  1025.6 hPa West 8.0 mph /  12.9 km/h 9.0 mph /  14.5 km/h 80 % 0.00 in /  0 mm 225 W/m2
08:35 46.7 °F /  8.2 °C 40.5 °F /  4.7 °C 30.30 in /  1026 hPa WNW 8.0 mph /  12.9 km/h 9.0 mph /  14.5 km/h 79 % 0.00 in /  0 mm 287 W/m2
08:45 47.4 °F /  8.6 °C 40.6 °F /  4.8 °C 30.30 in /  1026 hPa West 9.0 mph /  14.5 km/h 10.0 mph /  16.1 km/h 77 % 0.00 in /  0 mm 315 W/m2
08:50 47.7 °F /  8.7 °C 40.5 °F /  4.7 °C 30.30 in /  1026 hPa WSW 10.0 mph /  16.1 km/h 10.0 mph /  16.1 km/h 76 % 0.00 in /  0 mm 272 W/m2
08:55 48.0 °F /  8.9 °C 40.8 °F /  4.9 °C 30.31 in /  1026.3 hPa WSW 10.0 mph /  16.1 km/h 10.0 mph /  16.1 km/h 76 % 0.00 in /  0 mm 339 W/m2
09:00 48.3 °F /  9.1 °C 41.1 °F /  5.1 °C 30.31 in /  1026.3 hPa WNW 10.0 mph /  16.1 km/h 10.0 mph /  16.1 km/h 76 % 0.00 in /  0 mm 341 W/m2
09:05 48.7 °F /  9.3 °C 41.5 °F /  5.3 °C 30.30 in /  1026 hPa West 9.0 mph /  14.5 km/h 10.0 mph /  16.1 km/h 76 % 0.00 in /  0 mm 373 W/m2
09:10 49.1 °F /  9.5 °C 41.9 °F /  5.5 °C 30.31 in /  1026.3 hPa West 8.0 mph /  12.9 km/h 10.0 mph /  16.1 km/h 76 % 0.00 in /  0 mm 367 W/m2
09:20 49.8 °F /  9.9 °C 42.2 °F /  5.7 °C 30.31 in /  1026.3 hPa West 9.0 mph /  14.5 km/h 9.0 mph /  14.5 km/h 75 % 0.00 in /  0 mm 394 W/m2
09:25 49.9 °F /  9.9 °C 41.6 °F /  5.3 °C 30.31 in /  1026.3 hPa WNW 12.0 mph /  19.3 km/h 12.0 mph /  19.3 km/h 73 % 0.00 in /  0 mm 411 W/m2
09:35 50.0 °F /  10 °C 41.7 °F /  5.4 °C 30.31 in /  1026.3 hPa WNW 13.0 mph /  20.9 km/h 14.0 mph /  22.5 km/h 73 % 0.00 in /  0 mm 392 W/m2
09:40 50.1 °F /  10.1 °C 42.1 °F /  5.6 °C 30.31 in /  1026.3 hPa West 13.0 mph /  20.9 km/h 13.0 mph /  20.9 km/h 74 % 0.00 in /  0 mm 406 W/m2
09:45 50.4 °F /  10.2 °C 42.4 °F /  5.8 °C 30.31 in /  1026.3 hPa WNW 10.0 mph /  16.1 km/h 13.0 mph /  20.9 km/h 74 % 0.00 in /  0 mm 455 W/m2
09:55 51.2 °F /  10.7 °C 43.2 °F /  6.2 °C 30.31 in /  1026.3 hPa West 8.0 mph /  12.9 km/h 9.0 mph /  14.5 km/h 74 % 0.00 in /  0 mm 469 W/m2
10:00 51.6 °F /  10.9 °C 43.2 °F /  6.2 °C 30.32 in /  1026.6 hPa West 7.0 mph /  11.3 km/h 9.0 mph /  14.5 km/h 73 % 0.00 in /  0 mm 490 W/m2
10:05 52.0 °F /  11.1 °C 43.6 °F /  6.4 °C 30.32 in /  1026.6 hPa NW 7.0 mph /  11.3 km/h 9.0 mph /  14.5 km/h 73 % 0.00 in /  0 mm 533 W/m2
10:10 52.3 °F /  11.3 °C 43.9 °F /  6.6 °C 30.32 in /  1026.6 hPa WSW 8.0 mph /  12.9 km/h 8.0 mph /  12.9 km/h 73 % 0.00 in /  0 mm 534 W/m2
10:15 52.7 °F /  11.5 °C 44.6 °F /  7 °C 30.32 in /  1026.6 hPa West 8.0 mph /  12.9 km/h 9.0 mph /  14.5 km/h 74 % 0.00 in /  0 mm 547 W/m2
10:25 53.2 °F /  11.8 °C 44.8 °F /  7.1 °C 30.32 in /  1026.6 hPa WNW 10.0 mph /  16.1 km/h 19.0 mph /  30.6 km/h 73 % 0.00 in /  0 mm 564 W/m2
10:35 53.1 °F /  11.7 °C 45.0 °F /  7.2 °C 30.33 in /  1027 hPa WNW 11.0 mph /  17.7 km/h 12.0 mph /  19.3 km/h 74 % 0.00 in /  0 mm 246 W/m2
10:40 52.8 °F /  11.6 °C 45.1 °F /  7.3 °C 30.33 in /  1027 hPa WNW 10.0 mph /  16.1 km/h 11.0 mph /  17.7 km/h 75 % 0.00 in /  0 mm 197 W/m2
10:45 52.0 °F /  11.1 °C 44.7 °F /  7.1 °C 30.33 in /  1027 hPa WNW 14.0 mph /  22.5 km/h 18.0 mph /  29 km/h 76 % 0.00 in /  0 mm 369 W/m2
10:50 51.7 °F /  10.9 °C 44.7 °F /  7.1 °C 30.33 in /  1027 hPa West 14.0 mph /  22.5 km/h 14.0 mph /  22.5 km/h 77 % 0.00 in /  0 mm 197 W/m2
11:00 51.3 °F /  10.7 °C 44.7 °F /  7.1 °C 30.33 in /  1027 hPa West 12.0 mph /  19.3 km/h 12.0 mph /  19.3 km/h 78 % 0.00 in /  0 mm 174 W/m2
11:05 51.2 °F /  10.7 °C 44.6 °F /  7 °C 30.32 in /  1026.6 hPa WNW 12.0 mph /  19.3 km/h 12.0 mph /  19.3 km/h 78 % 0.00 in /  0 mm 174 W/m2
11:10 51.3 °F /  10.7 °C 45.0 °F /  7.2 °C 30.32 in /  1026.6 hPa WNW 12.0 mph /  19.3 km/h 18.0 mph /  29 km/h 79 % 0.00 in /  0 mm 276 W/m2
11:15 51.5 °F /  10.8 °C 45.2 °F /  7.3 °C 30.32 in /  1026.6 hPa West 13.0 mph /  20.9 km/h 18.0 mph /  29 km/h 79 % 0.00 in /  0 mm 656 W/m2
11:20 51.8 °F /  11 °C 45.5 °F /  7.5 °C 30.33 in /  1027 hPa WNW 14.0 mph /  22.5 km/h 19.0 mph /  30.6 km/h 79 % 0.00 in /  0 mm 652 W/m2
11:25 52.4 °F /  11.3 °C 45.7 °F /  7.6 °C 30.33 in /  1027 hPa West 17.0 mph /  27.4 km/h 19.0 mph /  30.6 km/h 78 % 0.00 in /  0 mm 612 W/m2
11:35 52.8 °F /  11.6 °C 45.4 °F /  7.4 °C 30.33 in /  1027 hPa West 15.0 mph /  24.1 km/h 17.0 mph /  27.4 km/h 76 % 0.00 in /  0 mm 258 W/m2
11:40 52.5 °F /  11.4 °C 45.5 °F /  7.5 °C 30.33 in /  1027 hPa WNW 14.0 mph /  22.5 km/h 14.0 mph /  22.5 km/h 77 % 0.00 in /  0 mm 322 W/m2
11:45 52.1 °F /  11.2 °C 45.1 °F /  7.3 °C 30.33 in /  1027 hPa West 13.0 mph /  20.9 km/h 18.0 mph /  29 km/h 77 % 0.00 in /  0 mm 248 W/m2
11:55 51.8 °F /  11 °C 45.5 °F /  7.5 °C 30.34 in /  1027.3 hPa West 11.0 mph /  17.7 km/h 12.0 mph /  19.3 km/h 79 % 0.00 in /  0 mm 315 W/m2
12:00 52.0 °F /  11.1 °C 45.7 °F /  7.6 °C 30.34 in /  1027.3 hPa West 10.0 mph /  16.1 km/h 10.0 mph /  16.1 km/h 79 % 0.00 in /  0 mm 301 W/m2
12:10 52.4 °F /  11.3 °C 45.7 °F /  7.6 °C 30.34 in /  1027.3 hPa WNW 10.0 mph /  16.1 km/h 10.0 mph /  16.1 km/h 78 % 0.00 in /  0 mm 304 W/m2
12:15 52.8 °F /  11.6 °C 46.1 °F /  7.8 °C 30.34 in /  1027.3 hPa WNW 9.0 mph /  14.5 km/h 10.0 mph /  16.1 km/h 78 % 0.00 in /  0 mm 385 W/m2
12:20 53.2 °F /  11.8 °C 46.5 °F /  8.1 °C 30.34 in /  1027.3 hPa West 8.0 mph /  12.9 km/h 9.0 mph /  14.5 km/h 78 % 0.00 in /  0 mm 408 W/m2
12:25 53.4 °F /  11.9 °C 46.4 °F /  8 °C 30.34 in /  1027.3 hPa West 9.0 mph /  14.5 km/h 13.0 mph /  20.9 km/h 77 % 0.00 in /  0 mm 230 W/m2
12:30 53.2 °F /  11.8 °C 46.2 °F /  7.9 °C 30.34 in /  1027.3 hPa West 10.0 mph /  16.1 km/h 11.0 mph /  17.7 km/h 77 % 0.00 in /  0 mm 199 W/m2
12:35 53.1 °F /  11.7 °C 46.1 °F /  7.8 °C 30.34 in /  1027.3 hPa West 11.0 mph /  17.7 km/h 11.0 mph /  17.7 km/h 77 % 0.00 in /  0 mm 179 W/m2
12:40 53.1 °F /  11.7 °C 46.1 °F /  7.8 °C 30.34 in /  1027.3 hPa WNW 10.0 mph /  16.1 km/h 10.0 mph /  16.1 km/h 77 % 0.00 in /  0 mm 260 W/m2
12:45 53.2 °F /  11.8 °C 45.8 °F /  7.7 °C 30.34 in /  1027.3 hPa WNW 11.0 mph /  17.7 km/h 11.0 mph /  17.7 km/h 76 % 0.00 in /  0 mm 357 W/m2
12:50 53.2 °F /  11.8 °C 45.8 °F /  7.7 °C 30.33 in /  1027 hPa West 11.0 mph /  17.7 km/h 18.0 mph /  29 km/h 76 % 0.00 in /  0 mm 155 W/m2
12:55 53.2 °F /  11.8 °C 46.2 °F /  7.9 °C 30.33 in /  1027 hPa West 12.0 mph /  19.3 km/h 18.0 mph /  29 km/h 77 % 0.00 in /  0 mm 666 W/m2
13:05 53.8 °F /  12.1 °C 46.4 °F /  8 °C 30.34 in /  1027.3 hPa WNW 12.0 mph /  19.3 km/h 13.0 mph /  20.9 km/h 76 % 0.00 in /  0 mm 151 W/m2
13:15 54.5 °F /  12.5 °C 46.7 °F /  8.2 °C 30.34 in /  1027.3 hPa West 12.0 mph /  19.3 km/h 12.0 mph /  19.3 km/h 75 % 0.00 in /  0 mm 645 W/m2
13:20 55.0 °F /  12.8 °C 46.5 °F /  8.1 °C 30.33 in /  1027 hPa WSW 13.0 mph /  20.9 km/h 15.0 mph /  24.1 km/h 73 % 0.00 in /  0 mm 596 W/m2
13:25 55.5 °F /  13.1 °C 47.0 °F /  8.3 °C 30.34 in /  1027.3 hPa WSW 13.0 mph /  20.9 km/h 15.0 mph /  24.1 km/h 73 % 0.00 in /  0 mm 682 W/m2
13:30 56.2 °F /  13.4 °C 47.3 °F /  8.5 °C 30.33 in /  1027 hPa West 12.0 mph /  19.3 km/h 12.0 mph /  19.3 km/h 72 % 0.00 in /  0 mm 536 W/m2
13:35 56.5 °F /  13.6 °C 47.2 °F /  8.4 °C 30.34 in /  1027.3 hPa WNW 11.0 mph /  17.7 km/h 12.0 mph /  19.3 km/h 71 % 0.00 in /  0 mm 649 W/m2
13:40 56.2 °F /  13.4 °C 46.2 °F /  7.9 °C 30.34 in /  1027.3 hPa West 11.0 mph /  17.7 km/h 14.0 mph /  22.5 km/h 69 % 0.00 in /  0 mm 190 W/m2
13:50 54.9 °F /  12.7 °C 45.7 °F /  7.6 °C 30.34 in /  1027.3 hPa WNW 14.0 mph /  22.5 km/h 16.0 mph /  25.7 km/h 71 % 0.00 in /  0 mm 176 W/m2
13:55 54.6 °F /  12.6 °C 45.4 °F /  7.4 °C 30.33 in /  1027 hPa West 15.0 mph /  24.1 km/h 16.0 mph /  25.7 km/h 71 % 0.00 in /  0 mm 230 W/m2
14:00 54.2 °F /  12.3 °C 45.0 °F /  7.2 °C 30.33 in /  1027 hPa West 17.0 mph /  27.4 km/h 17.0 mph /  27.4 km/h 71 % 0.00 in /  0 mm 190 W/m2
14:05 54.1 °F /  12.3 °C 45.6 °F /  7.6 °C 30.33 in /  1027 hPa West 16.0 mph /  25.7 km/h 17.0 mph /  27.4 km/h 73 % 0.00 in /  0 mm 218 W/m2
14:15 54.1 °F /  12.3 °C 45.3 °F /  7.4 °C 30.34 in /  1027.3 hPa West 15.0 mph /  24.1 km/h 20.0 mph /  32.2 km/h 72 % 0.00 in /  0 mm 403 W/m2
14:20 54.5 °F /  12.5 °C 45.3 °F /  7.4 °C 30.34 in /  1027.3 hPa West 13.0 mph /  20.9 km/h 15.0 mph /  24.1 km/h 71 % 0.00 in /  0 mm 288 W/m2
14:25 54.8 °F /  12.7 °C 45.6 °F /  7.6 °C 30.34 in /  1027.3 hPa West 13.0 mph /  20.9 km/h 15.0 mph /  24.1 km/h 71 % 0.00 in /  0 mm 221 W/m2
14:30 54.9 °F /  12.7 °C 45.3 °F /  7.4 °C 30.34 in /  1027.3 hPa WNW 13.0 mph /  20.9 km/h 13.0 mph /  20.9 km/h 70 % 0.00 in /  0 mm 401 W/m2
14:35 55.2 °F /  12.9 °C 45.6 °F /  7.6 °C 30.34 in /  1027.3 hPa WSW 12.0 mph /  19.3 km/h 14.0 mph /  22.5 km/h 70 % 0.00 in /  0 mm 424 W/m2
14:40 55.5 °F /  13.1 °C 45.5 °F /  7.5 °C 30.34 in /  1027.3 hPa WNW 13.0 mph /  20.9 km/h 13.0 mph /  20.9 km/h 69 % 0.00 in /  0 mm 221 W/m2
14:45 55.6 °F /  13.1 °C 45.6 °F /  7.6 °C 30.34 in /  1027.3 hPa West 14.0 mph /  22.5 km/h 14.0 mph /  22.5 km/h 69 % 0.00 in /  0 mm 267 W/m2
14:55 56.0 °F /  13.3 °C 46.0 °F /  7.8 °C 30.34 in /  1027.3 hPa West 13.0 mph /  20.9 km/h 19.0 mph /  30.6 km/h 69 % 0.00 in /  0 mm 267 W/m2
15:00 56.1 °F /  13.4 °C 46.1 °F /  7.8 °C 30.34 in /  1027.3 hPa WNW 13.0 mph /  20.9 km/h 13.0 mph /  20.9 km/h 69 % 0.00 in /  0 mm 294 W/m2
15:05 56.1 °F /  13.4 °C 45.7 °F /  7.6 °C 30.34 in /  1027.3 hPa West 14.0 mph /  22.5 km/h 14.0 mph /  22.5 km/h 68 % 0.00 in /  0 mm 272 W/m2
15:10 56.3 °F /  13.5 °C 46.3 °F /  7.9 °C 30.34 in /  1027.3 hPa WSW 13.0 mph /  20.9 km/h 13.0 mph /  20.9 km/h 69 % 0.00 in /  0 mm 508 W/m2
15:15 56.6 °F /  13.7 °C 46.5 °F /  8.1 °C 30.34 in /  1027.3 hPa NW 12.0 mph /  19.3 km/h 13.0 mph /  20.9 km/h 69 % 0.00 in /  0 mm 408 W/m2
15:20 57.1 °F /  13.9 °C 46.6 °F /  8.1 °C 30.34 in /  1027.3 hPa NW 11.0 mph /  17.7 km/h 11.0 mph /  17.7 km/h 68 % 0.00 in /  0 mm 439 W/m2
15:30 57.2 °F /  14 °C 46.3 °F /  7.9 °C 30.34 in /  1027.3 hPa WNW 11.0 mph /  17.7 km/h 11.0 mph /  17.7 km/h 67 % 0.00 in /  0 mm 485 W/m2
15:35 57.3 °F /  14.1 °C 46.4 °F /  8 °C 30.34 in /  1027.3 hPa WNW 10.0 mph /  16.1 km/h 11.0 mph /  17.7 km/h 67 % 0.00 in /  0 mm 504 W/m2
15:45 57.3 °F /  14.1 °C 46.0 °F /  7.8 °C 30.35 in /  1027.7 hPa WNW 11.0 mph /  17.7 km/h 15.0 mph /  24.1 km/h 66 % 0.00 in /  0 mm 464 W/m2
15:50 56.9 °F /  13.8 °C 46.1 °F /  7.8 °C 30.34 in /  1027.3 hPa West 12.0 mph /  19.3 km/h 12.0 mph /  19.3 km/h 67 % 0.00 in /  0 mm 230 W/m2
15:55 56.6 °F /  13.7 °C 45.8 °F /  7.7 °C 30.34 in /  1027.3 hPa WNW 13.0 mph /  20.9 km/h 16.0 mph /  25.7 km/h 67 % 0.00 in /  0 mm 388 W/m2
16:05 56.2 °F /  13.4 °C 45.8 °F /  7.7 °C 30.35 in /  1027.7 hPa WNW 14.0 mph /  22.5 km/h 15.0 mph /  24.1 km/h 68 % 0.00 in /  0 mm 371 W/m2
16:10 56.1 °F /  13.4 °C 45.7 °F /  7.6 °C 30.35 in /  1027.7 hPa WNW 13.0 mph /  20.9 km/h 13.0 mph /  20.9 km/h 68 % 0.00 in /  0 mm 330 W/m2
16:15 56.0 °F /  13.3 °C 46.0 °F /  7.8 °C 30.35 in /  1027.7 hPa West 13.0 mph /  20.9 km/h 13.0 mph /  20.9 km/h 69 % 0.00 in /  0 mm 274 W/m2
16:20 55.7 °F /  13.2 °C 45.7 °F /  7.6 °C 30.35 in /  1027.7 hPa West 14.0 mph /  22.5 km/h 15.0 mph /  24.1 km/h 69 % 0.00 in /  0 mm 183 W/m2
16:25 55.2 °F /  12.9 °C 45.6 °F /  7.6 °C 30.36 in /  1028 hPa WNW 13.0 mph /  20.9 km/h 15.0 mph /  24.1 km/h 70 % 0.00 in /  0 mm 149 W/m2
16:35 54.6 °F /  12.6 °C 45.8 °F /  7.7 °C 30.36 in /  1028 hPa West 12.0 mph /  19.3 km/h 15.0 mph /  24.1 km/h 72 % 0.00 in /  0 mm 128 W/m2
16:40 54.2 °F /  12.3 °C 45.7 °F /  7.6 °C 30.36 in /  1028 hPa WNW 10.0 mph /  16.1 km/h 10.0 mph /  16.1 km/h 73 % 0.00 in /  0 mm 120 W/m2
16:50 53.7 °F /  12.1 °C 45.6 °F /  7.6 °C 30.36 in /  1028 hPa West 11.0 mph /  17.7 km/h 11.0 mph /  17.7 km/h 74 % 0.00 in /  0 mm 105 W/m2
16:55 53.6 °F /  12 °C 45.9 °F /  7.7 °C 30.36 in /  1028 hPa West 9.0 mph /  14.5 km/h 11.0 mph /  17.7 km/h 75 % 0.00 in /  0 mm 90 W/m2
17:00 53.4 °F /  11.9 °C 45.7 °F /  7.6 °C 30.36 in /  1028 hPa WNW 8.0 mph /  12.9 km/h 8.0 mph /  12.9 km/h 75 % 0.00 in /  0 mm 77 W/m2
17:10 53.2 °F /  11.8 °C 45.5 °F /  7.5 °C 30.37 in /  1028.3 hPa West 6.0 mph /  9.7 km/h 11.0 mph /  17.7 km/h 75 % 0.00 in /  0 mm 62 W/m2
17:15 53.1 °F /  11.7 °C 45.7 °F /  7.6 °C 30.37 in /  1028.3 hPa West 6.0 mph /  9.7 km/h 11.0 mph /  17.7 km/h 76 % 0.00 in /  0 mm 56 W/m2
17:20 53.1 °F /  11.7 °C 45.7 °F /  7.6 °C 30.36 in /  1028 hPa West 4.0 mph /  6.4 km/h 9.0 mph /  14.5 km/h 76 % 0.00 in /  0 mm 51 W/m2
17:25 53.0 °F /  11.7 °C 46.0 °F /  7.8 °C 30.36 in /  1028 hPa West 5.0 mph /  8 km/h 9.0 mph /  14.5 km/h 77 % 0.00 in /  0 mm 47 W/m2
17:30 52.8 °F /  11.6 °C 45.8 °F /  7.7 °C 30.36 in /  1028 hPa WNW 6.0 mph /  9.7 km/h 9.0 mph /  14.5 km/h 77 % 0.00 in /  0 mm 44 W/m2
17:40 52.5 °F /  11.4 °C 45.2 °F /  7.3 °C 30.37 in /  1028.3 hPa West 7.0 mph /  11.3 km/h 7.0 mph /  11.3 km/h 76 % 0.00 in /  0 mm 26 W/m2
17:50 52.2 °F /  11.2 °C 44.9 °F /  7.2 °C 30.37 in /  1028.3 hPa WSW 7.0 mph /  11.3 km/h 12.0 mph /  19.3 km/h 76 % 0.00 in /  0 mm 14 W/m2
17:55 52.0 °F /  11.1 °C 44.7 °F /  7.1 °C 30.37 in /  1028.3 hPa WSW 8.0 mph /  12.9 km/h 12.0 mph /  19.3 km/h 76 % 0.00 in /  0 mm 11 W/m2
18:00 51.8 °F /  11 °C 44.5 °F /  6.9 °C 30.37 in /  1028.3 hPa WNW 7.0 mph /  11.3 km/h 7.0 mph /  11.3 km/h 76 % 0.00 in /  0 mm 7 W/m2
18:05 51.6 °F /  10.9 °C 44.6 °F /  7 °C 30.37 in /  1028.3 hPa West 5.0 mph /  8 km/h 9.0 mph /  14.5 km/h 77 % 0.00 in /  0 mm 0 W/m2
18:10 51.4 °F /  10.8 °C 44.4 °F /  6.9 °C 30.37 in /  1028.3 hPa West 2.0 mph /  3.2 km/h 2.0 mph /  3.2 km/h 77 % 0.00 in /  0 mm 0 W/m2
18:20 50.9 °F /  10.5 °C 43.9 °F /  6.6 °C 30.37 in /  1028.3 hPa Calm   9.0 mph /  14.5 km/h 77 % 0.00 in /  0 mm 0 W/m2
18:25 50.5 °F /  10.3 °C 43.9 °F /  6.6 °C 30.38 in /  1028.7 hPa Calm   9.0 mph /  14.5 km/h 78 % 0.00 in /  0 mm 0 W/m2
18:30 50.1 °F /  10.1 °C 43.5 °F /  6.4 °C 30.38 in /  1028.7 hPa West 1.0 mph /  1.6 km/h 1.0 mph /  1.6 km/h 78 % 0.00 in /  0 mm 0 W/m2
18:35 50.0 °F /  10 °C 43.7 °F /  6.5 °C 30.38 in /  1028.7 hPa SW 2.0 mph /  3.2 km/h 4.0 mph /  6.4 km/h 79 % 0.00 in /  0 mm 0 W/m2
18:40 50.1 °F /  10.1 °C 43.8 °F /  6.6 °C 30.38 in /  1028.7 hPa SW 2.0 mph /  3.2 km/h 2.0 mph /  3.2 km/h 79 % 0.00 in /  0 mm 0 W/m2
18:50 50.0 °F /  10 °C 43.7 °F /  6.5 °C 30.38 in /  1028.7 hPa West 4.0 mph /  6.4 km/h 9.0 mph /  14.5 km/h 79 % 0.00 in /  0 mm 0 W/m2
19:00 50.0 °F /  10 °C 43.7 °F /  6.5 °C 30.38 in /  1028.7 hPa West 4.0 mph /  6.4 km/h 4.0 mph /  6.4 km/h 79 % 0.00 in /  0 mm 0 W/m2
19:05 50.0 °F /  10 °C 43.7 °F /  6.5 °C 30.38 in /  1028.7 hPa West 3.0 mph /  4.8 km/h 9.0 mph /  14.5 km/h 79 % 0.00 in /  0 mm 0 W/m2
19:10 49.8 °F /  9.9 °C 43.9 °F /  6.6 °C 30.38 in /  1028.7 hPa WNW 2.0 mph /  3.2 km/h 9.0 mph /  14.5 km/h 80 % 0.00 in /  0 mm 0 W/m2
19:15 49.8 °F /  9.9 °C 43.9 °F /  6.6 °C 30.38 in /  1028.7 hPa WNW 3.0 mph /  4.8 km/h 9.0 mph /  14.5 km/h 80 % 0.00 in /  0 mm 0 W/m2
19:25 49.8 °F /  9.9 °C 43.9 °F /  6.6 °C 30.38 in /  1028.7 hPa WNW 3.0 mph /  4.8 km/h 9.0 mph /  14.5 km/h 80 % 0.00 in /  0 mm 0 W/m2
19:30 49.8 °F /  9.9 °C 43.9 °F /  6.6 °C 30.38 in /  1028.7 hPa WNW 3.0 mph /  4.8 km/h 3.0 mph /  4.8 km/h 80 % 0.00 in /  0 mm 0 W/m2
19:35 49.8 °F /  9.9 °C 44.2 °F /  6.8 °C 30.38 in /  1028.7 hPa West 3.0 mph /  4.8 km/h 9.0 mph /  14.5 km/h 81 % 0.00 in /  0 mm 0 W/m2
19:40 49.8 °F /  9.9 °C 44.2 °F /  6.8 °C 30.38 in /  1028.7 hPa West 4.0 mph /  6.4 km/h 9.0 mph /  14.5 km/h 81 % 0.00 in /  0 mm 0 W/m2
19:45 50.0 °F /  10 °C 44.1 °F /  6.7 °C 30.38 in /  1028.7 hPa WSW 6.0 mph /  9.7 km/h 9.0 mph /  14.5 km/h 80 % 0.00 in /  0 mm 0 W/m2
19:50 50.2 °F /  10.1 °C 44.3 °F /  6.8 °C 30.38 in /  1028.7 hPa West 6.0 mph /  9.7 km/h 6.0 mph /  9.7 km/h 80 % 0.00 in /  0 mm 0 W/m2
20:00 50.1 °F /  10.1 °C 43.8 °F /  6.6 °C 30.38 in /  1028.7 hPa WSW 3.0 mph /  4.8 km/h 3.0 mph /  4.8 km/h 79 % 0.00 in /  0 mm 0 W/m2
20:10 49.7 °F /  9.8 °C 43.8 °F /  6.6 °C 30.38 in /  1028.7 hPa West 1.0 mph /  1.6 km/h 9.0 mph /  14.5 km/h 80 % 0.00 in /  0 mm 0 W/m2
20:15 49.6 °F /  9.8 °C 43.7 °F /  6.5 °C 30.37 in /  1028.3 hPa West 1.0 mph /  1.6 km/h 9.0 mph /  14.5 km/h 80 % 0.00 in /  0 mm 0 W/m2
20:20 49.7 °F /  9.8 °C 43.8 °F /  6.6 °C 30.37 in /  1028.3 hPa WNW 2.0 mph /  3.2 km/h 9.0 mph /  14.5 km/h 80 % 0.00 in /  0 mm 0 W/m2
20:25 49.6 °F /  9.8 °C 43.7 °F /  6.5 °C 30.37 in /  1028.3 hPa NW 2.0 mph /  3.2 km/h 9.0 mph /  14.5 km/h 80 % 0.00 in /  0 mm 0 W/m2
20:35 49.4 °F /  9.7 °C 43.5 °F /  6.4 °C 30.37 in /  1028.3 hPa NW 2.0 mph /  3.2 km/h 9.0 mph /  14.5 km/h 80 % 0.00 in /  0 mm 0 W/m2
20:40 49.5 °F /  9.7 °C 43.9 °F /  6.6 °C 30.37 in /  1028.3 hPa WSW 2.0 mph /  3.2 km/h 9.0 mph /  14.5 km/h 81 % 0.00 in /  0 mm 0 W/m2
20:45 49.5 °F /  9.7 °C 43.6 °F /  6.4 °C 30.37 in /  1028.3 hPa West 2.0 mph /  3.2 km/h 9.0 mph /  14.5 km/h 80 % 0.00 in /  0 mm 0 W/m2
20:50 49.5 °F /  9.7 °C 43.6 °F /  6.4 °C 30.38 in /  1028.7 hPa West 3.0 mph /  4.8 km/h 3.0 mph /  4.8 km/h 80 % 0.00 in /  0 mm 0 W/m2
21:00 49.6 °F /  9.8 °C 44.0 °F /  6.7 °C 30.38 in /  1028.7 hPa West 1.0 mph /  1.6 km/h 1.0 mph /  1.6 km/h 81 % 0.00 in /  0 mm 0 W/m2
21:05 49.4 °F /  9.7 °C 43.8 °F /  6.6 °C 30.38 in /  1028.7 hPa Calm   9.0 mph /  14.5 km/h 81 % 0.00 in /  0 mm 0 W/m2
21:10 49.3 °F /  9.6 °C 44.0 °F /  6.7 °C 30.38 in /  1028.7 hPa Calm   9.0 mph /  14.5 km/h 82 % 0.00 in /  0 mm 0 W/m2
21:15 49.0 °F /  9.4 °C 43.7 °F /  6.5 °C 30.38 in /  1028.7 hPa NNW 1.0 mph /  1.6 km/h 9.0 mph /  14.5 km/h 82 % 0.00 in /  0 mm 0 W/m2
21:20 48.8 °F /  9.3 °C 43.9 °F /  6.6 °C 30.38 in /  1028.7 hPa NE 1.0 mph /  1.6 km/h 1.0 mph /  1.6 km/h 83 % 0.00 in /  0 mm 0 W/m2
21:25 48.8 °F /  9.3 °C 43.9 °F /  6.6 °C 30.38 in /  1028.7 hPa NE 1.0 mph /  1.6 km/h 9.0 mph /  14.5 km/h 83 % 0.00 in /  0 mm 0 W/m2
21:30 48.8 °F /  9.3 °C 44.2 °F /  6.8 °C 30.38 in /  1028.7 hPa WNW 2.0 mph /  3.2 km/h 9.0 mph /  14.5 km/h 84 % 0.00 in /  0 mm 0 W/m2
21:40 49.0 °F /  9.4 °C 44.4 °F /  6.9 °C 30.38 in /  1028.7 hPa WNW 3.0 mph /  4.8 km/h 3.0 mph /  4.8 km/h 84 % 0.00 in /  0 mm 0 W/m2
21:45 49.1 °F /  9.5 °C 44.5 °F /  6.9 °C 30.38 in /  1028.7 hPa WNW 2.0 mph /  3.2 km/h 9.0 mph /  14.5 km/h 84 % 0.00 in /  0 mm 0 W/m2
21:50 49.1 °F /  9.5 °C 44.5 °F /  6.9 °C 30.38 in /  1028.7 hPa WSW 2.0 mph /  3.2 km/h 9.0 mph /  14.5 km/h 84 % 0.00 in /  0 mm 0 W/m2
21:55 49.2 °F /  9.6 °C 44.6 °F /  7 °C 30.38 in /  1028.7 hPa West 2.0 mph /  3.2 km/h 9.0 mph /  14.5 km/h 84 % 0.00 in /  0 mm 0 W/m2
22:00 49.1 °F /  9.5 °C 44.5 °F /  6.9 °C 30.38 in /  1028.7 hPa West 1.0 mph /  1.6 km/h 1.0 mph /  1.6 km/h 84 % 0.00 in /  0 mm 0 W/m2
22:05 49.1 °F /  9.5 °C 44.5 °F /  6.9 °C 30.38 in /  1028.7 hPa SW 1.0 mph /  1.6 km/h 9.0 mph /  14.5 km/h 84 % 0.00 in /  0 mm 0 W/m2
22:10 48.9 °F /  9.4 °C 44.3 °F /  6.8 °C 30.38 in /  1028.7 hPa West 2.0 mph /  3.2 km/h 2.0 mph /  3.2 km/h 84 % 0.00 in /  0 mm 0 W/m2
22:15 48.9 °F /  9.4 °C 44.3 °F /  6.8 °C 30.38 in /  1028.7 hPa WSW 2.0 mph /  3.2 km/h 9.0 mph /  14.5 km/h 84 % 0.00 in /  0 mm 0 W/m2
22:25 48.7 °F /  9.3 °C 44.1 °F /  6.7 °C 30.38 in /  1028.7 hPa WNW 3.0 mph /  4.8 km/h 9.0 mph /  14.5 km/h 84 % 0.00 in /  0 mm 0 W/m2
22:30 48.6 °F /  9.2 °C 44.3 °F /  6.8 °C 30.38 in /  1028.7 hPa NW 4.0 mph /  6.4 km/h 9.0 mph /  14.5 km/h 85 % 0.00 in /  0 mm 0 W/m2
22:35 48.7 °F /  9.3 °C 44.4 °F /  6.9 °C 30.38 in /  1028.7 hPa WNW 6.0 mph /  9.7 km/h 9.0 mph /  14.5 km/h 85 % 0.00 in /  0 mm 0 W/m2
22:40 48.7 °F /  9.3 °C 44.4 °F /  6.9 °C 30.38 in /  1028.7 hPa WNW 6.0 mph /  9.7 km/h 9.0 mph /  14.5 km/h 85 % 0.00 in /  0 mm 0 W/m2
22:50 48.9 °F /  9.4 °C 44.6 °F /  7 °C 30.38 in /  1028.7 hPa WNW 7.0 mph /  11.3 km/h 9.0 mph /  14.5 km/h 85 % 0.00 in /  0 mm 0 W/m2
22:55 49.0 °F /  9.4 °C 44.7 °F /  7.1 °C 30.38 in /  1028.7 hPa WSW 8.0 mph /  12.9 km/h 9.0 mph /  14.5 km/h 85 % 0.00 in /  0 mm 0 W/m2
23:00 49.0 °F /  9.4 °C 44.7 °F /  7.1 °C 30.38 in /  1028.7 hPa West 9.0 mph /  14.5 km/h 10.0 mph /  16.1 km/h 85 % 0.00 in /  0 mm 0 W/m2
23:05 49.0 °F /  9.4 °C 44.7 °F /  7.1 °C 30.38 in /  1028.7 hPa WNW 8.0 mph /  12.9 km/h 10.0 mph /  16.1 km/h 85 % 0.00 in /  0 mm 0 W/m2
23:10 49.0 °F /  9.4 °C 44.7 °F /  7.1 °C 30.38 in /  1028.7 hPa WNW 7.0 mph /  11.3 km/h 7.0 mph /  11.3 km/h 85 % 0.00 in /  0 mm 0 W/m2
23:20 48.8 °F /  9.3 °C 44.5 °F /  6.9 °C 30.38 in /  1028.7 hPa WNW 7.0 mph /  11.3 km/h 9.0 mph /  14.5 km/h 85 % 0.00 in /  0 mm 0 W/m2
23:25 48.8 °F /  9.3 °C 44.5 °F /  6.9 °C 30.38 in /  1028.7 hPa WNW 8.0 mph /  12.9 km/h 9.0 mph /  14.5 km/h 85 % 0.00 in /  0 mm 0 W/m2
23:30 48.7 °F /  9.3 °C 44.4 °F /  6.9 °C 30.38 in /  1028.7 hPa West 8.0 mph /  12.9 km/h 9.0 mph /  14.5 km/h 85 % 0.00 in /  0 mm 0 W/m2
23:35 48.8 °F /  9.3 °C 44.5 °F /  6.9 °C 30.38 in /  1028.7 hPa WNW 8.0 mph /  12.9 km/h 9.0 mph /  14.5 km/h 85 % 0.00 in /  0 mm 0 W/m2
23:40 48.9 °F /  9.4 °C 44.6 °F /  7 °C 30.38 in /  1028.7 hPa West 8.0 mph /  12.9 km/h 13.0 mph /  20.9 km/h 85 % 0.00 in /  0 mm 0 W/m2
23:45 48.8 °F /  9.3 °C 44.2 °F /  6.8 °C 30.38 in /  1028.7 hPa WNW 8.0 mph /  12.9 km/h 13.0 mph /  20.9 km/h 84 % 0.00 in /  0 mm 0 W/m2
23:55 48.6 °F /  9.2 °C 44.3 °F /  6.8 °C 30.38 in /  1028.7 hPa WNW 6.0 mph /  9.7 km/h 9.0 mph /  14.5 km/h 85 % 0.00 in /  0 mm 0 W/m2
Delerius-Weather
Compliments of Weather Underground - 2 mb

Data updates at regular intervals.